Time;durP1;ratioP1;P1;durP2;ratioP2;P2;SDS_P1;SDS_P2;PMS_P1;PMS_P2;Temp;Humidity;BMP_temperature;BMP_pressure;BME280_temperature;BME280_humidity;BME280_pressure;Samples;Min_cycle;Max_cycle;Signal;HPM_P1;HPM_P2
2021/01/24 14:06:48;;;;;;;4.53;2.27;;;4.80;99.90;;;;;;3778861;22;20237;-71
2021/01/24 14:09:15;;;;;;;6.87;2.00;;;4.80;99.90;;;;;;5010983;28;20217;-71
2021/01/24 14:11:42;;;;;;;3.30;1.60;;;5.00;99.90;;;;;;5012789;28;20205;-71
2021/01/24 14:14:08;;;;;;;3.73;1.93;;;5.10;99.90;;;;;;5012812;28;20252;-71
2021/01/24 14:16:35;;;;;;;5.90;2.73;;;5.10;99.90;;;;;;5013822;28;20209;-69
2021/01/24 14:19:01;;;;;;;8.63;3.30;;;5.10;99.90;;;;;;5013846;28;20206;-71
2021/01/24 14:21:27;;;;;;;4.60;2.20;;;5.00;99.90;;;;;;4999490;28;20208;-72
2021/01/24 14:23:54;;;;;;;4.03;1.57;;;4.80;99.90;;;;;;5011990;28;20252;-72
2021/01/24 14:26:21;;;;;;;7.03;2.13;;;4.80;99.90;;;;;;5012027;28;20604;-72
2021/01/24 14:28:47;;;;;;;3.80;2.17;;;4.90;99.90;;;;;;5011522;28;20202;-70
2021/01/24 14:31:13;;;;;;;4.27;2.00;;;4.90;99.90;;;;;;5011992;28;20291;-73
2021/01/24 14:33:40;;;;;;;4.60;1.97;;;4.90;99.90;;;;;;5010158;28;20631;-73
2021/01/24 14:36:08;;;;;;;5.23;2.30;;;5.00;99.90;;;;;;5010205;28;20660;-70
2021/01/24 14:38:34;;;;;;;6.43;2.23;;;5.10;99.90;;;;;;5012915;28;20206;-72
2021/01/24 14:41:01;;;;;;;3.93;1.87;;;5.00;99.90;;;;;;5012004;28;20228;-77
2021/01/24 14:43:27;;;;;;;7.10;1.93;;;5.00;99.90;;;;;;5011179;28;20225;-67
2021/01/24 14:45:54;;;;;;;5.20;2.10;;;5.10;99.90;;;;;;5011987;28;20845;-76
2021/01/24 14:48:22;;;;;;;4.87;2.03;;;5.20;99.90;;;;;;5011990;28;20212;-69
2021/01/24 14:50:48;;;;;;;4.67;1.90;;;5.30;99.90;;;;;;5009183;28;20661;-71
2021/01/24 14:53:15;;;;;;;3.87;1.87;;;5.40;99.90;;;;;;5011852;28;20233;-71
2021/01/24 14:55:41;;;;;;;6.83;2.13;;;5.30;99.90;;;;;;5011805;28;20321;-69
2021/01/24 14:58:08;;;;;;;4.50;2.20;;;5.10;99.90;;;;;;5010775;28;20212;-70
2021/01/24 15:00:34;;;;;;;4.20;1.90;;;5.00;99.90;;;;;;5011790;28;20650;-74
2021/01/24 15:03:01;;;;;;;3.67;1.93;;;5.00;99.90;;;;;;5011435;28;20252;-71
2021/01/24 15:05:27;;;;;;;5.27;1.93;;;4.90;99.90;;;;;;5011040;28;20217;-74
2021/01/24 15:07:56;;;;;;;5.03;2.37;;;4.90;99.90;;;;;;5011107;28;20240;-72
2021/01/24 15:10:22;;;;;;;3.33;1.73;;;4.90;99.90;;;;;;5012549;28;20290;-68
2021/01/24 15:12:48;;;;;;;5.20;1.93;;;4.80;99.90;;;;;;5012731;28;20217;-69
2021/01/24 15:15:15;;;;;;;7.40;3.60;;;4.80;99.90;;;;;;5012271;28;20253;-68
2021/01/24 15:17:42;;;;;;;5.30;2.47;;;5.00;99.90;;;;;;5012688;28;20213;-68
2021/01/24 15:20:09;;;;;;;6.17;2.80;;;4.90;99.90;;;;;;5013004;28;20287;-68
2021/01/24 15:22:36;;;;;;;5.40;1.80;;;4.90;99.90;;;;;;5013085;28;20210;-68
2021/01/24 15:25:03;;;;;;;9.30;3.47;;;4.90;99.90;;;;;;5012680;28;20237;-68
2021/01/24 15:27:29;;;;;;;4.73;2.20;;;4.80;99.90;;;;;;5012083;28;20233;-68
2021/01/24 15:29:56;;;;;;;4.33;2.00;;;4.70;99.90;;;;;;5012461;28;20202;-69
2021/01/24 15:32:24;;;;;;;8.73;2.43;;;4.60;99.90;;;;;;5002394;28;20228;-68
2021/01/24 15:34:50;;;;;;;7.57;2.97;;;4.60;99.90;;;;;;5008886;28;20780;-69
2021/01/24 15:37:17;;;;;;;4.77;2.40;;;4.60;99.90;;;;;;5012334;28;20212;-69
2021/01/24 15:39:43;;;;;;;3.90;2.00;;;4.60;99.90;;;;;;5011488;28;20232;-70
2021/01/24 15:42:09;;;;;;;4.50;2.50;;;4.50;99.90;;;;;;5011260;28;20221;-69
2021/01/24 15:44:35;;;;;;;6.67;2.93;;;4.50;99.90;;;;;;5013096;28;20230;-69
2021/01/24 15:47:02;;;;;;;14.60;4.87;;;4.40;99.90;;;;;;5016195;28;20241;-68
2021/01/24 15:49:29;;;;;;;6.47;2.60;;;4.30;99.90;;;;;;5016142;28;20670;-70
2021/01/24 15:51:56;;;;;;;5.20;1.87;;;4.20;99.90;;;;;;5016108;28;20214;-69
2021/01/24 15:54:22;;;;;;;5.33;2.40;;;4.00;99.90;;;;;;5015484;28;20708;-69
2021/01/24 15:56:48;;;;;;;8.70;2.83;;;3.70;99.90;;;;;;5015930;28;20297;-69
2021/01/24 15:59:14;;;;;;;3.83;2.13;;;3.70;99.90;;;;;;5014376;28;20205;-67
2021/01/24 16:01:41;;;;;;;8.20;3.63;;;3.90;99.90;;;;;;5013196;28;20205;-67
2021/01/24 16:04:07;;;;;;;3.53;2.10;;;3.90;99.90;;;;;;5012153;28;20229;-68
2021/01/24 16:06:35;;;;;;;4.30;2.43;;;4.00;99.90;;;;;;5014438;28;20648;-70
2021/01/24 16:09:01;;;;;;;4.40;2.07;;;4.00;99.90;;;;;;5015140;28;20214;-68
2021/01/24 16:11:28;;;;;;;10.10;2.37;;;4.00;99.90;;;;;;5015650;28;20206;-68
2021/01/24 16:13:54;;;;;;;6.73;1.90;;;4.00;99.90;;;;;;5015230;28;20229;-67
2021/01/24 16:16:20;;;;;;;4.70;2.33;;;4.00;99.90;;;;;;5015476;28;20256;-69
2021/01/24 16:18:46;;;;;;;5.73;2.33;;;4.00;99.90;;;;;;5014537;28;20627;-68
2021/01/24 16:21:13;;;;;;;3.70;2.27;;;4.00;99.90;;;;;;5014267;28;20205;-72
2021/01/24 16:23:40;;;;;;;5.30;2.17;;;4.10;99.90;;;;;;5014476;28;20238;-71
2021/01/24 16:26:06;;;;;;;5.30;2.17;;;4.30;99.90;;;;;;5015103;28;20205;-70
2021/01/24 16:28:33;;;;;;;3.33;2.03;;;4.20;99.90;;;;;;5013999;28;20248;-70
2021/01/24 16:30:59;;;;;;;4.33;2.13;;;4.10;99.90;;;;;;5014004;28;20714;-71
2021/01/24 16:33:25;;;;;;;10.63;2.20;;;3.90;99.90;;;;;;5014978;28;20226;-70
2021/01/24 16:35:51;;;;;;;4.67;2.10;;;3.90;99.90;;;;;;5014662;28;20268;-71
2021/01/24 16:38:17;;;;;;;6.40;3.30;;;3.80;99.90;;;;;;5012272;28;20217;-71
2021/01/24 16:40:45;;;;;;;4.30;2.23;;;3.90;99.90;;;;;;5013163;28;20201;-72
2021/01/24 16:43:11;;;;;;;7.23;3.10;;;3.90;99.90;;;;;;5014687;28;20209;-72
2021/01/24 16:45:37;;;;;;;7.50;3.10;;;4.00;99.90;;;;;;5013788;28;20210;-72
2021/01/24 16:48:04;;;;;;;6.73;3.20;;;4.10;99.90;;;;;;5012457;28;20249;-72
2021/01/24 16:50:31;;;;;;;5.50;2.50;;;3.90;99.90;;;;;;5014458;28;20202;-72
2021/01/24 16:52:57;;;;;;;3.90;2.33;;;3.90;99.90;;;;;;5014069;28;20205;-71
2021/01/24 16:55:23;;;;;;;10.70;3.37;;;3.90;99.90;;;;;;5012237;28;20213;-72
2021/01/24 16:57:51;;;;;;;7.60;2.27;;;3.90;99.90;;;;;;5014583;28;20217;-72
2021/01/24 17:00:18;;;;;;;4.40;2.40;;;3.90;99.90;;;;;;5011613;28;20202;-73
2021/01/24 17:02:44;;;;;;;5.30;2.47;;;3.90;99.90;;;;;;5011266;28;20221;-72
2021/01/24 17:05:11;;;;;;;4.60;2.17;;;3.80;99.90;;;;;;5011802;28;20226;-73
2021/01/24 17:07:37;;;;;;;3.90;1.87;;;3.80;99.90;;;;;;5013620;28;20722;-71
2021/01/24 17:10:04;;;;;;;5.50;2.00;;;3.90;99.90;;;;;;5013926;28;20205;-74
2021/01/24 17:12:31;;;;;;;7.97;1.90;;;3.80;99.90;;;;;;5014592;28;20584;-76
2021/01/24 17:15:00;;;;;;;4.17;2.17;;;3.80;99.90;;;;;;5010311;28;20226;-74
2021/01/24 17:17:26;;;;;;;3.67;1.90;;;3.80;99.90;;;;;;5013664;28;20206;-72
2021/01/24 17:19:52;;;;;;;5.30;2.70;;;3.80;99.90;;;;;;5012311;28;20206;-73
2021/01/24 17:22:21;;;;;;;4.10;2.27;;;3.80;99.90;;;;;;5013319;28;20228;-72
2021/01/24 17:24:48;;;;;;;3.50;1.87;;;3.80;99.90;;;;;;5011733;28;20562;-78
2021/01/24 17:27:14;;;;;;;3.37;1.83;;;3.90;99.90;;;;;;5014054;28;20255;-73
2021/01/24 17:29:40;;;;;;;2.57;1.40;;;3.70;99.90;;;;;;5013545;28;20213;-74
2021/01/24 17:32:07;;;;;;;4.53;1.57;;;3.60;99.90;;;;;;5013881;28;20284;-74
2021/01/24 17:34:34;;;;;;;7.03;2.03;;;3.50;99.90;;;;;;5013601;28;20230;-75
2021/01/24 17:37:00;;;;;;;3.87;2.00;;;3.50;99.90;;;;;;5013836;28;20218;-78
2021/01/24 17:39:26;;;;;;;3.63;1.83;;;3.60;99.90;;;;;;5013679;28;20557;-79
2021/01/24 17:41:52;;;;;;;5.60;2.07;;;3.60;99.90;;;;;;5013997;28;20233;-78
2021/01/24 17:44:19;;;;;;;2.77;1.43;;;3.60;99.90;;;;;;5013144;28;20592;-77
2021/01/24 17:46:45;;;;;;;5.90;1.80;;;3.50;99.90;;;;;;5013151;28;20230;-79
2021/01/24 17:49:12;;;;;;;4.03;1.87;;;3.40;99.90;;;;;;5013790;28;20256;-76
2021/01/24 17:51:38;;;;;;;5.03;1.60;;;3.50;99.90;;;;;;5011552;28;20210;-75
2021/01/24 17:54:04;;;;;;;1.90;0.90;;;3.30;99.90;;;;;;5012987;28;20585;-75
2021/01/24 17:56:31;;;;;;;2.40;1.23;;;3.30;99.90;;;;;;5013295;28;20217;-77
2021/01/24 17:58:57;;;;;;;4.57;1.27;;;3.10;99.90;;;;;;5012781;28;20209;-80
2021/01/24 18:01:23;;;;;;;5.47;1.83;;;3.00;99.90;;;;;;5013664;28;20210;-76
2021/01/24 18:03:49;;;;;;;2.97;1.17;;;3.10;99.90;;;;;;5013219;28;20225;-76
2021/01/24 18:06:17;;;;;;;4.47;1.80;;;3.00;99.90;;;;;;5013106;28;20282;-77
2021/01/24 18:08:43;;;;;;;4.50;1.53;;;3.00;99.90;;;;;;5012007;28;20205;-81
2021/01/24 18:11:09;;;;;;;4.83;2.20;;;2.90;99.90;;;;;;5012728;28;20206;-78
2021/01/24 18:13:35;;;;;;;3.33;1.73;;;3.00;99.90;;;;;;5011458;28;20230;-75
2021/01/24 18:16:02;;;;;;;13.47;5.63;;;2.90;99.90;;;;;;5013297;28;20206;-76
2021/01/24 18:18:37;;;;;;;3.80;1.20;;;2.90;99.90;;;;;;5010207;28;20549;-76
2021/01/24 18:21:04;;;;;;;1.83;0.83;;;2.80;99.90;;;;;;5012635;28;20259;-78
2021/01/24 18:23:31;;;;;;;2.27;1.07;;;2.80;99.90;;;;;;5012090;28;20226;-77
2021/01/24 18:25:57;;;;;;;1.80;0.80;;;2.60;99.90;;;;;;5011918;28;20202;-76
2021/01/24 18:28:24;;;;;;;2.80;1.00;;;2.70;99.90;;;;;;5002402;28;20237;-77
2021/01/24 18:30:50;;;;;;;6.70;2.23;;;2.80;99.90;;;;;;5000436;28;20206;-75
2021/01/24 18:33:16;;;;;;;2.27;1.10;;;2.90;99.90;;;;;;5012073;28;20222;-79
2021/01/24 18:35:43;;;;;;;1.20;0.80;;;2.80;99.90;;;;;;5012523;28;20255;-77
2021/01/24 18:38:10;;;;;;;5.33;1.30;;;2.70;99.90;;;;;;5012286;28;20205;-75
2021/01/24 18:40:37;;;;;;;1.30;0.90;;;2.70;99.90;;;;;;5012239;28;20252;-75
2021/01/24 18:43:04;;;;;;;2.93;1.30;;;2.70;99.90;;;;;;5011737;28;20210;-75
2021/01/24 18:45:30;;;;;;;1.63;1.07;;;2.70;99.90;;;;;;5012719;28;20209;-75
2021/01/24 18:47:56;;;;;;;3.90;1.90;;;2.70;99.90;;;;;;5012789;28;20245;-77
2021/01/24 18:50:23;;;;;;;10.60;2.40;;;2.90;99.90;;;;;;5012707;28;20210;-75
2021/01/24 18:52:49;;;;;;;3.63;1.47;;;3.00;99.90;;;;;;5006360;28;20232;-75
2021/01/24 18:55:16;;;;;;;3.17;1.27;;;3.00;99.90;;;;;;5012337;28;20229;-75
2021/01/24 18:57:43;;;;;;;2.33;1.13;;;3.00;99.90;;;;;;5012605;28;20210;-75
2021/01/24 19:00:11;;;;;;;12.57;2.93;;;2.90;99.90;;;;;;5011598;28;20206;-75
2021/01/24 19:02:37;;;;;;;3.97;1.30;;;2.90;99.90;;;;;;5008825;28;20202;-75
2021/01/24 19:05:04;;;;;;;2.90;1.17;;;2.80;99.90;;;;;;5012147;28;20229;-75
2021/01/24 19:07:30;;;;;;;2.13;1.20;;;2.90;99.90;;;;;;5011529;28;20233;-75
2021/01/24 19:09:57;;;;;;;1.97;1.30;;;2.90;99.90;;;;;;5012311;28;20699;-74
2021/01/24 19:12:23;;;;;;;0.60;0.53;;;2.90;99.90;;;;;;5011455;28;20214;-77
2021/01/24 19:14:50;;;;;;;1.77;0.90;;;3.00;99.90;;;;;;5012269;28;20237;-77
2021/01/24 19:17:16;;;;;;;3.23;1.10;;;2.90;99.90;;;;;;5012061;28;20209;-78
2021/01/24 19:19:43;;;;;;;2.83;1.13;;;2.90;99.90;;;;;;5013440;28;20213;-77
2021/01/24 19:22:09;;;;;;;2.20;0.87;;;2.90;99.90;;;;;;5014315;28;20209;-78
2021/01/24 19:24:36;;;;;;;4.57;1.20;;;2.80;99.90;;;;;;5006888;28;20241;-76
2021/01/24 19:27:02;;;;;;;6.43;1.50;;;2.80;99.90;;;;;;5012960;28;20248;-76
2021/01/24 19:29:29;;;;;;;2.50;1.23;;;3.00;99.90;;;;;;5016010;28;20206;-79
2021/01/24 19:31:56;;;;;;;2.90;1.27;;;2.90;99.90;;;;;;5015332;28;20209;-77
2021/01/24 19:34:22;;;;;;;1.23;0.77;;;3.00;99.90;;;;;;5015111;28;20225;-76
2021/01/24 19:36:49;;;;;;;2.40;0.93;;;3.00;99.90;;;;;;5015907;28;20695;-78
2021/01/24 19:39:17;;;;;;;6.17;1.37;;;2.90;99.90;;;;;;5014161;28;20213;-75
2021/01/24 19:41:43;;;;;;;3.20;1.23;;;3.00;99.90;;;;;;5002679;28;20240;-77
2021/01/24 19:44:10;;;;;;;2.53;1.17;;;3.10;99.90;;;;;;5015549;28;20275;-74
2021/01/24 19:46:36;;;;;;;7.57;2.13;;;3.00;99.90;;;;;;5015714;28;20213;-75
2021/01/24 19:49:04;;;;;;;4.47;1.57;;;3.00;99.90;;;;;;5015860;28;20206;-75
2021/01/24 19:51:30;;;;;;;4.43;1.53;;;3.10;99.90;;;;;;5013668;28;20237;-74
2021/01/24 19:53:56;;;;;;;3.30;1.40;;;3.20;99.90;;;;;;5012890;28;20225;-74
2021/01/24 19:56:23;;;;;;;2.93;1.90;;;3.30;99.90;;;;;;5015814;28;20220;-73
2021/01/24 19:58:49;;;;;;;2.77;1.30;;;3.40;99.90;;;;;;5001414;28;20210;-76
2021/01/24 20:01:16;;;;;;;16.17;6.13;;;3.20;99.90;;;;;;5013130;28;20747;-77
2021/01/24 20:03:43;;;;;;;11.17;4.33;;;3.20;99.90;;;;;;5014277;28;20229;-76
2021/01/24 20:06:10;;;;;;;2.87;1.67;;;3.30;99.90;;;;;;5014801;28;20206;-79
2021/01/24 20:08:36;;;;;;;5.70;1.27;;;3.10;99.90;;;;;;5012816;28;20233;-79
2021/01/24 20:11:02;;;;;;;4.10;1.83;;;3.00;99.90;;;;;;5013871;28;20209;-79
2021/01/24 20:13:28;;;;;;;3.00;1.10;;;3.10;99.90;;;;;;5014546;28;20234;-79
2021/01/24 20:15:54;;;;;;;5.13;1.70;;;3.00;99.90;;;;;;5014240;28;20564;-79
2021/01/24 20:18:21;;;;;;;1.63;1.07;;;3.10;99.90;;;;;;5014749;28;20260;-79
2021/01/24 20:20:47;;;;;;;2.80;1.33;;;3.00;99.90;;;;;;5013656;28;20656;-79
2021/01/24 20:23:14;;;;;;;2.13;1.10;;;3.10;99.90;;;;;;5013659;28;20256;-79
2021/01/24 20:25:42;;;;;;;3.97;1.53;;;3.10;99.90;;;;;;5008104;28;20240;-79
2021/01/24 20:28:08;;;;;;;2.40;1.50;;;3.10;99.90;;;;;;5012356;28;20313;-79
2021/01/24 20:30:35;;;;;;;11.80;2.47;;;3.20;99.90;;;;;;5013661;28;20209;-79
2021/01/24 20:33:02;;;;;;;2.53;1.30;;;3.30;99.90;;;;;;5013948;28;20680;-79
2021/01/24 20:35:29;;;;;;;2.13;1.40;;;3.30;99.90;;;;;;5014035;28;20567;-79
2021/01/24 20:37:56;;;;;;;5.17;1.37;;;3.40;99.90;;;;;;5013645;28;20205;-78
2021/01/24 20:40:24;;;;;;;1.90;1.10;;;3.20;99.90;;;;;;5014256;28;20236;-79
2021/01/24 20:42:50;;;;;;;2.30;1.40;;;3.30;99.90;;;;;;5013660;28;20213;-79
2021/01/24 20:45:16;;;;;;;3.20;1.70;;;3.20;99.90;;;;;;5013827;28;20229;-79
2021/01/24 20:47:43;;;;;;;2.13;1.50;;;3.20;99.90;;;;;;5006323;28;20241;-80
2021/01/24 20:50:10;;;;;;;3.73;1.53;;;3.10;99.90;;;;;;5013809;28;20210;-79
2021/01/24 20:52:36;;;;;;;2.97;1.53;;;3.30;99.90;;;;;;5013052;28;20213;-74
2021/01/24 20:55:03;;;;;;;3.47;1.63;;;3.20;99.90;;;;;;5014865;28;20229;-76
2021/01/24 20:57:31;;;;;;;5.23;1.83;;;3.10;99.90;;;;;;5014898;28;20202;-75
2021/01/24 20:59:57;;;;;;;2.77;1.47;;;3.20;99.90;;;;;;5015200;28;20206;-74
2021/01/24 21:02:23;;;;;;;1.60;1.13;;;3.20;99.90;;;;;;5015098;28;20217;-76
2021/01/24 21:04:50;;;;;;;3.53;1.73;;;3.10;99.90;;;;;;5014620;28;20229;-76
2021/01/24 21:07:19;;;;;;;2.13;1.60;;;3.00;99.90;;;;;;5014675;28;20256;-74
2021/01/24 21:09:45;;;;;;;1.50;1.07;;;3.00;99.90;;;;;;5015129;28;20365;-76
2021/01/24 21:12:11;;;;;;;2.50;1.47;;;3.10;99.90;;;;;;5014548;28;20206;-74
2021/01/24 21:14:39;;;;;;;2.83;1.60;;;3.30;99.90;;;;;;5014464;28;20580;-75
2021/01/24 21:17:05;;;;;;;3.40;1.80;;;3.20;99.90;;;;;;5014775;28;20210;-76
2021/01/24 21:19:31;;;;;;;3.27;1.70;;;3.20;99.90;;;;;;5014738;28;20209;-74
2021/01/24 21:21:57;;;;;;;3.83;1.70;;;3.10;99.90;;;;;;5014427;28;20209;-74
2021/01/24 21:24:23;;;;;;;1.83;1.43;;;3.20;99.90;;;;;;5014120;28;20577;-75
2021/01/24 21:26:50;;;;;;;3.40;2.03;;;3.20;99.90;;;;;;5014459;28;20229;-75
2021/01/24 21:29:16;;;;;;;2.07;1.60;;;3.30;99.90;;;;;;5014540;28;20209;-75
2021/01/24 21:31:43;;;;;;;3.07;1.57;;;3.30;99.90;;;;;;5014589;28;20224;-75
2021/01/24 21:34:09;;;;;;;2.70;1.53;;;3.40;99.90;;;;;;5013907;28;20225;-75
2021/01/24 21:36:35;;;;;;;2.40;1.70;;;3.40;99.90;;;;;;5014666;28;20201;-74
2021/01/24 21:39:02;;;;;;;2.90;2.00;;;3.40;99.90;;;;;;5014291;28;20213;-76
2021/01/24 21:41:28;;;;;;;6.07;1.93;;;3.40;99.90;;;;;;5013543;28;20205;-74
2021/01/24 21:43:54;;;;;;;2.73;1.50;;;3.40;99.90;;;;;;5014029;28;20222;-74
2021/01/24 21:46:20;;;;;;;4.07;1.60;;;3.50;99.90;;;;;;5014007;28;20213;-75
2021/01/24 21:48:47;;;;;;;2.10;1.30;;;3.50;99.90;;;;;;5013978;28;20233;-74
2021/01/24 21:51:14;;;;;;;1.97;1.50;;;3.40;99.90;;;;;;5014362;28;20267;-75
2021/01/24 21:53:40;;;;;;;1.67;1.23;;;3.50;99.90;;;;;;5013985;28;20279;-75
2021/01/24 21:56:06;;;;;;;3.03;1.50;;;3.50;99.90;;;;;;5014039;28;20232;-75
2021/01/24 21:58:33;;;;;;;2.03;1.20;;;3.40;99.90;;;;;;5013639;28;20206;-75
2021/01/24 22:00:59;;;;;;;2.63;1.50;;;3.40;99.90;;;;;;5013673;28;20542;-74
2021/01/24 22:03:25;;;;;;;4.03;1.37;;;3.40;99.90;;;;;;5014093;28;20229;-74
2021/01/24 22:05:52;;;;;;;2.60;1.40;;;3.50;99.90;;;;;;5014181;28;20209;-74
2021/01/24 22:08:18;;;;;;;2.97;1.50;;;3.50;99.90;;;;;;5013633;28;20248;-74
2021/01/24 22:10:45;;;;;;;2.57;1.57;;;3.60;99.90;;;;;;5013772;28;20209;-74
2021/01/24 22:13:11;;;;;;;3.17;1.57;;;3.60;99.90;;;;;;5013100;28;20201;-75
2021/01/24 22:15:37;;;;;;;2.43;1.50;;;3.60;99.90;;;;;;5013677;28;20209;-75
2021/01/24 22:18:04;;;;;;;2.33;1.40;;;3.60;99.90;;;;;;5014113;28;20205;-74
2021/01/24 22:20:30;;;;;;;2.73;1.47;;;3.60;99.90;;;;;;5013848;28;20214;-74
2021/01/24 22:22:58;;;;;;;3.37;1.70;;;3.60;99.90;;;;;;5012850;28;20657;-75
